sensor_id;sensor_type;location;lat;lon;timestamp;pressure;altitude;pressure_sealevel;temperature;humidity
58245;BME280;44550;43.864;25.986;2022-07-29T00:02:39;101130.38;;;25.04;72.88
58245;BME280;44550;43.864;25.986;2022-07-29T00:07:45;101141.41;;;24.77;73.65
58245;BME280;44550;43.864;25.986;2022-07-29T00:13:00;101131.41;;;24.62;74.48
58245;BME280;44550;43.864;25.986;2022-07-29T00:17:48;101146.66;;;24.60;74.55
58245;BME280;44550;43.864;25.986;2022-07-29T00:22:40;101142.47;;;24.54;74.70
58245;BME280;44550;43.864;25.986;2022-07-29T00:27:31;101135.44;;;24.52;74.78
58245;BME280;44550;43.864;25.986;2022-07-29T00:50:17;101143.13;;;23.98;74.66
58245;BME280;44550;43.864;25.986;2022-07-29T00:54:45;101143.22;;;23.75;74.76
58245;BME280;44550;43.864;25.986;2022-07-29T00:59:20;101146.44;;;23.61;74.45
58245;BME280;44550;43.864;25.986;2022-07-29T01:09:05;101135.66;;;23.40;73.55
58245;BME280;44550;43.864;25.986;2022-07-29T01:13:07;101141.69;;;23.24;72.21
58245;BME280;44550;43.864;25.986;2022-07-29T01:17:14;101131.34;;;23.14;71.88
58245;BME280;44550;43.864;25.986;2022-07-29T01:21:30;101135.44;;;23.25;71.15
58245;BME280;44550;43.864;25.986;2022-07-29T01:25:57;101137.72;;;23.34;70.11
58245;BME280;44550;43.864;25.986;2022-07-29T01:30:11;101118.53;;;23.24;69.22
58245;BME280;44550;43.864;25.986;2022-07-29T01:34:25;101128.97;;;23.30;69.58
58245;BME280;44550;43.864;25.986;2022-07-29T01:38:59;101133.69;;;23.24;69.84
58245;BME280;44550;43.864;25.986;2022-07-29T01:43:11;101126.34;;;23.07;69.90
58245;BME280;44550;43.864;25.986;2022-07-29T01:47:30;101122.81;;;23.06;70.47
58245;BME280;44550;43.864;25.986;2022-07-29T01:51:43;101127.38;;;23.03;70.64
58245;BME280;44550;43.864;25.986;2022-07-29T01:56:05;101130.25;;;22.98;70.33
58245;BME280;44550;43.864;25.986;2022-07-29T02:00:13;101130.41;;;22.93;70.76
58245;BME280;44550;43.864;25.986;2022-07-29T02:04:41;101127.06;;;22.87;72.01
58245;BME280;44550;43.864;25.986;2022-07-29T02:08:49;101117.00;;;22.71;73.35
58245;BME280;44550;43.864;25.986;2022-07-29T02:12:58;101111.94;;;22.64;73.71
58245;BME280;44550;43.864;25.986;2022-07-29T02:17:06;101119.53;;;22.74;74.10
58245;BME280;44550;43.864;25.986;2022-07-29T02:21:24;101101.91;;;22.70;73.78
58245;BME280;44550;43.864;25.986;2022-07-29T02:25:32;101099.88;;;22.54;74.55
58245;BME280;44550;43.864;25.986;2022-07-29T02:29:50;101111.94;;;22.64;75.33
58245;BME280;44550;43.864;25.986;2022-07-29T02:34:12;101130.72;;;22.61;75.53
58245;BME280;44550;43.864;25.986;2022-07-29T02:38:26;101122.47;;;22.43;76.22
58245;BME280;44550;43.864;25.986;2022-07-29T02:42:51;101120.09;;;22.36;76.80
58245;BME280;44550;43.864;25.986;2022-07-29T02:47:23;101111.81;;;22.18;77.51
58245;BME280;44550;43.864;25.986;2022-07-29T02:51:53;101128.09;;;22.09;78.20
58245;BME280;44550;43.864;25.986;2022-07-29T02:56:19;101130.97;;;22.03;78.95
58245;BME280;44550;43.864;25.986;2022-07-29T03:01:42;101131.91;;;22.02;79.38
58245;BME280;44550;43.864;25.986;2022-07-29T03:06:38;101147.72;;;22.07;79.43
58245;BME280;44550;43.864;25.986;2022-07-29T03:10:53;101139.94;;;22.00;79.58
58245;BME280;44550;43.864;25.986;2022-07-29T03:15:19;101142.66;;;21.99;79.76
58245;BME280;44550;43.864;25.986;2022-07-29T03:19:39;101140.09;;;21.96;79.49
58245;BME280;44550;43.864;25.986;2022-07-29T03:24:03;101137.84;;;21.84;79.24
58245;BME280;44550;43.864;25.986;2022-07-29T03:28:14;101146.34;;;21.95;79.28
58245;BME280;44550;43.864;25.986;2022-07-29T03:38:06;101160.59;;;22.20;76.05
58245;BME280;44550;43.864;25.986;2022-07-29T03:43:09;101161.56;;;22.18;75.85
58245;BME280;44550;43.864;25.986;2022-07-29T03:47:23;101149.44;;;22.08;75.14
58245;BME280;44550;43.864;25.986;2022-07-29T03:51:52;101148.00;;;22.25;74.60
58245;BME280;44550;43.864;25.986;2022-07-29T03:56:34;101166.63;;;22.75;72.39
58245;BME280;44550;43.864;25.986;2022-07-29T04:00:49;101163.75;;;23.05;70.66
58245;BME280;44550;43.864;25.986;2022-07-29T04:05:12;101168.19;;;23.50;69.21
58245;BME280;44550;43.864;25.986;2022-07-29T04:09:21;101159.41;;;23.92;67.62
58245;BME280;44550;43.864;25.986;2022-07-29T04:13:35;101107.44;;;23.99;66.01
58245;BME280;44550;43.864;25.986;2022-07-29T04:17:37;101170.91;;;24.76;64.07
58245;BME280;44550;43.864;25.986;2022-07-29T04:21:41;101174.25;;;24.81;64.43
58245;BME280;44550;43.864;25.986;2022-07-29T04:25:45;101169.06;;;24.97;63.43
58245;BME280;44550;43.864;25.986;2022-07-29T04:35:24;101179.66;;;25.19;62.59
58245;BME280;44550;43.864;25.986;2022-07-29T04:40:48;101178.06;;;25.15;62.53
58245;BME280;44550;43.864;25.986;2022-07-29T04:46:01;101190.13;;;25.42;60.35
58245;BME280;44550;43.864;25.986;2022-07-29T04:52:59;101187.91;;;25.69;58.35
58245;BME280;44550;43.864;25.986;2022-07-29T05:17:00;101201.81;;;26.48;58.07
58245;BME280;44550;43.864;25.986;2022-07-29T05:46:51;101209.13;;;29.25;49.59
58245;BME280;44550;43.864;25.986;2022-07-29T06:27:39;101199.44;;;29.64;46.22
58245;BME280;44550;43.864;25.986;2022-07-29T06:39:23;101203.78;;;30.34;44.53
58245;BME280;44550;43.864;25.986;2022-07-29T07:14:46;101198.03;;;32.48;36.71
58245;BME280;44550;43.864;25.986;2022-07-29T07:31:36;101194.13;;;32.63;35.11
58245;BME280;44550;43.864;25.986;2022-07-29T07:37:10;101182.78;;;32.47;35.46
58245;BME280;44550;43.864;25.986;2022-07-29T07:42:29;101182.56;;;32.61;34.83
58245;BME280;44550;43.864;25.986;2022-07-29T07:52:13;101181.09;;;32.22;34.57
58245;BME280;44550;43.864;25.986;2022-07-29T07:56:38;101151.19;;;32.12;32.72
58245;BME280;44550;43.864;25.986;2022-07-29T08:06:42;101175.88;;;32.08;33.03
58245;BME280;44550;43.864;25.986;2022-07-29T08:11:13;101161.94;;;31.90;33.89
58245;BME280;44550;43.864;25.986;2022-07-29T08:15:49;101168.69;;;31.95;34.44
58245;BME280;44550;43.864;25.986;2022-07-29T08:30:19;101170.09;;;32.47;31.93
58245;BME280;44550;43.864;25.986;2022-07-29T08:39:36;101160.91;;;32.72;32.13
58245;BME280;44550;43.864;25.986;2022-07-29T08:49:40;101158.56;;;32.68;32.33
58245;BME280;44550;43.864;25.986;2022-07-29T08:54:04;101151.53;;;32.88;30.76
58245;BME280;44550;43.864;25.986;2022-07-29T08:59:14;101147.72;;;32.68;30.44
58245;BME280;44550;43.864;25.986;2022-07-29T09:04:23;101137.63;;;32.81;30.97
58245;BME280;44550;43.864;25.986;2022-07-29T09:14:51;101128.91;;;32.66;30.89
58245;BME280;44550;43.864;25.986;2022-07-29T09:19:46;101125.06;;;32.91;31.50
58245;BME280;44550;43.864;25.986;2022-07-29T09:25:00;101113.63;;;32.88;30.87
58245;BME280;44550;43.864;25.986;2022-07-29T09:29:32;101121.78;;;32.99;30.67
58245;BME280;44550;43.864;25.986;2022-07-29T09:34:20;101124.69;;;33.18;29.89
58245;BME280;44550;43.864;25.986;2022-07-29T09:40:12;101125.06;;;32.91;29.45
58245;BME280;44550;43.864;25.986;2022-07-29T10:02:59;101114.69;;;33.95;28.93
58245;BME280;44550;43.864;25.986;2022-07-29T10:18:59;101091.25;;;33.94;28.54
58245;BME280;44550;43.864;25.986;2022-07-29T10:30:37;101092.31;;;34.44;27.10
58245;BME280;44550;43.864;25.986;2022-07-29T13:00:21;100923.66;;;36.38;27.87
58245;BME280;44550;43.864;25.986;2022-07-29T13:04:25;100924.22;;;36.42;27.56
58245;BME280;44550;43.864;25.986;2022-07-29T13:08:25;100918.94;;;36.13;27.46
58245;BME280;44550;43.864;25.986;2022-07-29T13:12:25;100919.09;;;36.11;27.90
58245;BME280;44550;43.864;25.986;2022-07-29T13:16:32;100916.53;;;36.10;28.05
58245;BME280;44550;43.864;25.986;2022-07-29T13:20:35;100866.19;;;35.86;27.58
58245;BME280;44550;43.864;25.986;2022-07-29T13:24:48;100897.84;;;36.15;27.69
58245;BME280;44550;43.864;25.986;2022-07-29T13:28:50;100901.47;;;36.06;28.02
58245;BME280;44550;43.864;25.986;2022-07-29T13:32:52;100885.09;;;36.15;27.51
58245;BME280;44550;43.864;25.986;2022-07-29T13:36:52;100893.53;;;36.50;27.23
58245;BME280;44550;43.864;25.986;2022-07-29T13:40:52;100889.50;;;36.26;27.21
58245;BME280;44550;43.864;25.986;2022-07-29T13:44:52;100841.88;;;35.75;27.32
58245;BME280;44550;43.864;25.986;2022-07-29T13:48:57;100881.16;;;36.00;27.24
58245;BME280;44550;43.864;25.986;2022-07-29T13:52:57;100886.16;;;36.05;26.94
58245;BME280;44550;43.864;25.986;2022-07-29T13:57:14;100844.31;;;35.78;27.01
58245;BME280;44550;43.864;25.986;2022-07-29T14:01:44;100863.53;;;36.04;28.02
58245;BME280;44550;43.864;25.986;2022-07-29T14:06:44;100878.03;;;36.22;27.06
58245;BME280;44550;43.864;25.986;2022-07-29T14:10:45;100879.16;;;36.30;27.17
58245;BME280;44550;43.864;25.986;2022-07-29T14:14:47;100865.06;;;36.16;26.83
58245;BME280;44550;43.864;25.986;2022-07-29T14:18:52;100858.06;;;36.32;26.80
58245;BME280;44550;43.864;25.986;2022-07-29T14:22:54;100880.16;;;36.56;27.74
58245;BME280;44550;43.864;25.986;2022-07-29T14:26:53;100875.06;;;36.61;26.88
58245;BME280;44550;43.864;25.986;2022-07-29T14:31:02;100874.63;;;36.66;26.94
58245;BME280;44550;43.864;25.986;2022-07-29T14:35:07;100864.63;;;36.75;25.89
58245;BME280;44550;43.864;25.986;2022-07-29T14:39:28;100856.47;;;36.57;26.45
58245;BME280;44550;43.864;25.986;2022-07-29T14:43:39;100851.50;;;36.42;26.52
58245;BME280;44550;43.864;25.986;2022-07-29T14:47:47;100865.41;;;36.49;27.72
58245;BME280;44550;43.864;25.986;2022-07-29T14:51:53;100848.94;;;36.51;26.86
58245;BME280;44550;43.864;25.986;2022-07-29T14:55:55;100861.69;;;36.68;26.86
58245;BME280;44550;43.864;25.986;2022-07-29T15:00:16;100861.53;;;36.52;26.29
58245;BME280;44550;43.864;25.986;2022-07-29T15:04:18;100858.78;;;36.52;26.74
58245;BME280;44550;43.864;25.986;2022-07-29T15:08:18;100864.16;;;36.61;26.20
58245;BME280;44550;43.864;25.986;2022-07-29T15:12:21;100867.59;;;36.81;26.01
58245;BME280;44550;43.864;25.986;2022-07-29T16:46:38;100847.16;;;35.29;29.61
58245;BME280;44550;43.864;25.986;2022-07-29T16:51:55;100856.41;;;35.46;29.25
58245;BME280;44550;43.864;25.986;2022-07-29T16:57:05;100857.88;;;35.41;29.00
58245;BME280;44550;43.864;25.986;2022-07-29T17:02:40;100853.78;;;35.27;29.05
58245;BME280;44550;43.864;25.986;2022-07-29T17:07:49;100851.22;;;35.06;29.43
58245;BME280;44550;43.864;25.986;2022-07-29T17:12:45;100864.41;;;34.72;29.10
58245;BME280;44550;43.864;25.986;2022-07-29T17:18:22;100866.25;;;34.52;29.08
58245;BME280;44550;43.864;25.986;2022-07-29T17:23:58;100856.91;;;34.35;29.30
58245;BME280;44550;43.864;25.986;2022-07-29T17:29:24;100853.88;;;34.19;29.57
58245;BME280;44550;43.864;25.986;2022-07-29T17:40:20;100863.19;;;33.85;30.35
58245;BME280;44550;43.864;25.986;2022-07-29T17:46:04;100860.13;;;33.69;30.82
58245;BME280;44550;43.864;25.986;2022-07-29T18:02:04;100875.19;;;33.31;32.13
58245;BME280;44550;43.864;25.986;2022-07-29T20:29:24;100963.16;;;29.25;38.22
58245;BME280;44550;43.864;25.986;2022-07-29T20:33:38;100971.13;;;28.99;38.52
58245;BME280;44550;43.864;25.986;2022-07-29T20:37:43;100962.25;;;28.85;38.86
58245;BME280;44550;43.864;25.986;2022-07-29T20:41:57;100964.38;;;28.79;38.72
58245;BME280;44550;43.864;25.986;2022-07-29T20:46:03;100963.19;;;28.84;38.73
58245;BME280;44550;43.864;25.986;2022-07-29T20:50:11;100948.75;;;28.72;38.90
58245;BME280;44550;43.864;25.986;2022-07-29T20:54:15;100947.69;;;28.74;38.68
58245;BME280;44550;43.864;25.986;2022-07-29T20:58:23;100956.03;;;28.70;38.88
58245;BME280;44550;43.864;25.986;2022-07-29T21:02:25;100953.94;;;28.61;38.88
58245;BME280;44550;43.864;25.986;2022-07-29T21:06:28;100967.91;;;28.53;39.04
58245;BME280;44550;43.864;25.986;2022-07-29T21:10:30;100970.31;;;28.43;39.23
58245;BME280;44550;43.864;25.986;2022-07-29T21:15:05;100966.78;;;28.43;39.25
58245;BME280;44550;43.864;25.986;2022-07-29T21:30:02;100988.50;;;28.40;39.45
58245;BME280;44550;43.864;25.986;2022-07-29T21:34:35;100989.69;;;28.34;39.77
58245;BME280;44550;43.864;25.986;2022-07-29T21:46:07;100994.44;;;28.45;39.50
58245;BME280;44550;43.864;25.986;2022-07-29T22:16:13;101012.09;;;27.92;42.16
58245;BME280;44550;43.864;25.986;2022-07-29T22:20:49;101011.50;;;27.86;41.23
58245;BME280;44550;43.864;25.986;2022-07-29T22:38:17;101010.88;;;28.12;40.85
58245;BME280;44550;43.864;25.986;2022-07-29T23:13:32;101016.31;;;26.40;46.06
58245;BME280;44550;43.864;25.986;2022-07-29T23:18:30;101020.25;;;26.17;46.50
58245;BME280;44550;43.864;25.986;2022-07-29T23:29:10;101015.25;;;25.94;47.53
58245;BME280;44550;43.864;25.986;2022-07-29T23:45:47;101025.88;;;25.43;48.94
58245;BME280;44550;43.864;25.986;2022-07-29T23:50:56;101023.97;;;25.09;50.02
58245;BME280;44550;43.864;25.986;2022-07-29T23:56:08;101031.81;;;24.95;50.61
